createdAt,value
2022-10-17T00:01:31.164Z,9.47
2022-10-17T00:04:04.951Z,9.30
2022-10-17T00:06:32.198Z,9.85
2022-10-17T00:09:05.906Z,11.45
2022-10-17T00:11:34.770Z,12.70
2022-10-17T00:14:09.909Z,12.10
2022-10-17T00:16:37.949Z,10.27
2022-10-17T00:19:13.887Z,12.32
2022-10-17T00:21:41.179Z,11.80
2022-10-17T00:24:15.127Z,13.02
2022-10-17T00:26:42.560Z,14.32
2022-10-17T00:29:15.802Z,11.35
2022-10-17T00:31:56.862Z,11.60
2022-10-17T00:34:31.530Z,11.52
2022-10-17T00:37:05.882Z,15.70
2022-10-17T00:39:33.518Z,10.77
2022-10-17T00:42:06.773Z,11.70
2022-10-17T00:44:34.847Z,12.75
2022-10-17T00:47:17.842Z,14.00
2022-10-17T00:49:47.909Z,13.63
2022-10-17T00:52:30.487Z,12.25
2022-10-17T00:55:08.909Z,10.05
2022-10-17T00:57:43.757Z,9.85
2022-10-17T01:00:12.613Z,10.90
2022-10-17T01:02:46.862Z,10.98
2022-10-17T01:05:15.695Z,11.63
2022-10-17T01:07:44.638Z,13.15
2022-10-17T01:10:20.967Z,12.32
2022-10-17T01:13:04.837Z,12.02
2022-10-17T01:15:35.177Z,12.52
2022-10-17T01:18:33.718Z,11.70
2022-10-17T01:21:36.088Z,12.48
2022-10-17T01:24:32.143Z,12.65
2022-10-17T01:27:11.988Z,12.82
2022-10-17T01:30:04.885Z,10.32
2022-10-17T01:32:43.947Z,11.20
2022-10-17T01:35:32.001Z,13.38
2022-10-17T01:38:09.987Z,13.35
2022-10-17T01:40:57.883Z,13.25
2022-10-17T01:43:53.947Z,9.75
2022-10-17T01:46:58.014Z,13.40
2022-10-17T01:49:35.977Z,11.27
2022-10-17T01:52:16.921Z,12.52
2022-10-17T01:54:55.857Z,10.73
2022-10-17T01:57:54.972Z,11.38
2022-10-17T02:00:31.928Z,10.02
2022-10-17T02:03:04.272Z,12.13
2022-10-17T02:05:47.779Z,9.82
2022-10-17T02:08:25.163Z,9.85
2022-10-17T02:11:11.774Z,9.02
2022-10-17T02:14:21.867Z,11.68
2022-10-17T02:17:05.737Z,9.07
2022-10-17T02:20:05.792Z,12.27
2022-10-17T02:22:54.935Z,10.55
2022-10-17T02:25:34.193Z,8.40
2022-10-17T02:28:23.939Z,11.00
2022-10-17T02:31:04.820Z,10.05
2022-10-17T02:33:59.922Z,8.73
2022-10-17T02:36:41.896Z,9.67
2022-10-17T02:39:17.827Z,9.70
2022-10-17T02:41:46.369Z,9.05
2022-10-17T02:44:20.792Z,8.32
2022-10-17T02:46:56.076Z,7.70
2022-10-17T02:49:41.793Z,9.27
2022-10-17T02:52:36.956Z,7.32
2022-10-17T02:55:38.873Z,10.63
2022-10-17T02:58:32.539Z,9.65
2022-10-17T03:01:08.114Z,9.32
2022-10-17T03:03:41.872Z,7.70
2022-10-17T03:06:15.897Z,8.60
2022-10-17T03:08:49.852Z,7.65
2022-10-17T03:11:25.024Z,8.15
2022-10-17T03:13:54.867Z,7.70
2022-10-17T03:16:28.917Z,7.60
2022-10-17T03:18:56.709Z,6.75
2022-10-17T03:21:30.946Z,9.00
2022-10-17T03:24:04.900Z,8.90
2022-10-17T03:26:39.169Z,7.90
2022-10-17T03:29:12.901Z,10.75
2022-10-17T03:31:59.930Z,9.02
2022-10-17T03:34:34.121Z,8.23
2022-10-17T03:37:01.319Z,7.80
2022-10-17T03:39:34.819Z,7.68
2022-10-17T03:42:09.021Z,7.60
2022-10-17T03:44:42.833Z,7.33
2022-10-17T03:47:13.334Z,7.32
2022-10-17T03:49:50.928Z,8.18
2022-10-17T03:52:18.239Z,8.27
2022-10-17T03:54:51.954Z,6.40
2022-10-17T03:57:27.326Z,8.43
2022-10-17T03:59:54.990Z,5.50
2022-10-17T04:02:28.828Z,6.15
2022-10-17T04:05:02.930Z,6.05
2022-10-17T04:07:36.760Z,6.68
2022-10-17T04:10:05.270Z,5.70
2022-10-17T04:12:38.860Z,6.80
2022-10-17T04:15:07.039Z,5.88
2022-10-17T04:17:40.981Z,5.63
2022-10-17T04:20:08.849Z,5.47
2022-10-17T04:22:43.047Z,6.45
2022-10-17T04:25:10.257Z,6.73
2022-10-17T04:27:37.716Z,7.18
2022-10-17T04:30:11.712Z,6.40
2022-10-17T04:32:45.972Z,5.25
2022-10-17T04:35:19.877Z,5.60
2022-10-17T04:37:47.342Z,4.97
2022-10-17T04:40:21.059Z,6.25
2022-10-17T04:42:48.256Z,6.15
2022-10-17T04:45:21.942Z,6.47
2022-10-17T04:47:49.132Z,6.00
2022-10-17T04:50:23.492Z,6.88
2022-10-17T04:52:57.263Z,5.97
2022-10-17T04:55:24.444Z,5.07
2022-10-17T04:57:57.850Z,5.75
2022-10-17T05:00:31.975Z,5.45
2022-10-17T05:02:59.172Z,6.00
2022-10-17T05:05:32.897Z,7.63
2022-10-17T05:08:00.063Z,4.97
2022-10-17T05:10:33.946Z,5.28
2022-10-17T05:13:08.216Z,5.30
2022-10-17T05:15:36.311Z,5.18
2022-10-17T05:18:11.876Z,6.47
2022-10-17T05:20:38.956Z,5.55
2022-10-17T05:23:06.632Z,5.95
2022-10-17T05:25:40.834Z,6.53
2022-10-17T05:28:08.027Z,6.33
2022-10-17T05:30:42.951Z,4.38
2022-10-17T05:33:16.962Z,5.60
2022-10-17T05:35:50.917Z,7.05
2022-10-17T05:38:18.429Z,7.05
2022-10-17T05:40:51.798Z,6.13
2022-10-17T05:43:25.921Z,7.40
2022-10-17T05:46:00.832Z,7.82
2022-10-17T05:48:34.866Z,7.78
2022-10-17T05:51:09.094Z,7.55
2022-10-17T05:53:45.915Z,8.00
2022-10-17T05:56:20.811Z,7.65
2022-10-17T05:58:50.891Z,7.95
2022-10-17T06:01:25.831Z,10.45
2022-10-17T06:03:59.884Z,10.27
2022-10-17T06:06:33.828Z,8.80
2022-10-17T06:09:08.057Z,8.95
2022-10-17T06:11:42.824Z,7.80
2022-10-17T06:14:10.384Z,7.78
2022-10-17T06:16:43.888Z,8.13
2022-10-17T06:19:18.954Z,9.60
2022-10-17T06:24:19.987Z,10.25
2022-10-17T06:26:47.995Z,8.35
2022-10-17T06:29:21.839Z,7.47
2022-10-17T06:32:11.253Z,8.23
2022-10-17T06:34:47.949Z,10.30
2022-10-17T06:37:15.379Z,11.68
2022-10-17T06:39:48.954Z,11.10
2022-10-17T06:42:22.885Z,14.70
2022-10-17T06:44:50.064Z,22.55
2022-10-17T06:47:23.965Z,27.92
2022-10-17T06:49:51.271Z,33.30
2022-10-17T06:52:25.285Z,27.80
2022-10-17T06:54:58.908Z,26.48
2022-10-17T06:57:26.687Z,29.80
2022-10-17T07:00:01.854Z,26.00
2022-10-17T07:02:30.887Z,26.27
2022-10-17T07:05:04.834Z,26.70
2022-10-17T07:07:33.205Z,25.83
2022-10-17T07:10:06.919Z,26.40
2022-10-17T07:12:40.954Z,29.63
2022-10-17T07:15:08.884Z,30.63
2022-10-17T07:17:43.081Z,32.42
2022-10-17T07:20:11.537Z,33.83
2022-10-17T07:22:44.925Z,32.63
2022-10-17T07:25:12.066Z,36.92
2022-10-17T07:27:45.851Z,36.40
2022-10-17T07:30:13.075Z,38.53
2022-10-17T07:32:53.939Z,36.88
2022-10-17T07:35:21.779Z,38.08
2022-10-17T07:37:55.991Z,31.48
2022-10-17T07:40:23.180Z,34.03
2022-10-17T07:42:56.855Z,36.70
2022-10-17T07:45:24.180Z,36.90
2022-10-17T07:47:58.171Z,40.63
2022-10-17T07:50:25.907Z,41.47
2022-10-17T07:53:02.133Z,31.08
2022-10-17T07:55:29.305Z,36.00
2022-10-17T08:00:37.092Z,27.27
2022-10-17T08:03:12.006Z,28.83
2022-10-17T08:05:39.247Z,29.00
2022-10-17T08:08:13.037Z,30.33
2022-10-17T08:10:40.695Z,28.17
2022-10-17T08:13:08.045Z,29.83
2022-10-17T08:15:44.878Z,26.02
2022-10-17T08:18:18.965Z,30.17
2022-10-17T08:20:46.111Z,27.13
2022-10-17T08:23:21.752Z,23.08
2022-10-17T08:25:50.392Z,27.25
2022-10-17T08:28:23.911Z,26.55
2022-10-17T08:30:51.119Z,24.67
2022-10-17T08:33:31.937Z,28.77
2022-10-17T08:36:07.942Z,26.65
2022-10-17T08:38:43.715Z,31.40
2022-10-17T08:41:23.497Z,25.58
2022-10-17T08:44:25.010Z,26.67
2022-10-17T08:47:05.879Z,25.60
2022-10-17T08:50:08.322Z,22.90
2022-10-17T08:52:48.367Z,29.15
2022-10-17T08:55:27.169Z,27.30
2022-10-17T08:58:00.982Z,24.42
2022-10-17T09:00:36.962Z,25.48
2022-10-17T09:03:18.062Z,29.70
2022-10-17T09:06:06.663Z,33.85
2022-10-17T09:08:59.827Z,28.27
2022-10-17T09:11:44.837Z,27.30
2022-10-17T09:14:42.018Z,28.10
2022-10-17T09:17:41.497Z,28.75
2022-10-17T09:20:31.922Z,26.85
2022-10-17T09:23:01.511Z,24.55
2022-10-17T09:25:35.853Z,27.73
2022-10-17T09:28:10.290Z,29.05
2022-10-17T09:31:05.859Z,26.13
2022-10-17T09:34:00.467Z,28.25
2022-10-17T09:36:43.039Z,28.45
2022-10-17T09:39:29.878Z,28.40
2022-10-17T09:42:06.818Z,29.58
2022-10-17T09:44:57.888Z,32.22
2022-10-17T09:47:27.693Z,27.40
2022-10-17T09:50:03.136Z,28.60
2022-10-17T09:52:54.905Z,26.00
2022-10-17T09:55:40.004Z,23.80
2022-10-17T09:58:09.309Z,24.42
2022-10-17T10:00:49.909Z,31.55
2022-10-17T10:03:21.143Z,26.42
2022-10-17T10:06:21.900Z,25.67
2022-10-17T10:09:06.153Z,31.67
2022-10-17T10:11:55.930Z,29.92
2022-10-17T10:14:35.602Z,32.35
2022-10-17T10:17:13.310Z,26.00
2022-10-17T10:19:50.111Z,24.50
2022-10-17T10:22:31.293Z,27.25
2022-10-17T10:25:15.853Z,29.90
2022-10-17T10:27:52.861Z,34.05
2022-10-17T10:30:27.192Z,32.33
2022-10-17T10:33:07.818Z,29.77
2022-10-17T10:35:42.754Z,24.33
2022-10-17T10:38:24.799Z,26.92
2022-10-17T10:41:05.039Z,24.35
2022-10-17T10:43:43.514Z,23.70
2022-10-17T10:46:32.035Z,25.45
2022-10-17T10:49:10.155Z,20.08
2022-10-17T10:51:54.893Z,19.73
2022-10-17T10:54:31.517Z,24.65
2022-10-17T10:57:12.004Z,20.50
2022-10-17T10:59:58.656Z,31.17
2022-10-17T11:03:01.867Z,27.85
2022-10-17T11:05:42.384Z,22.98
2022-10-17T11:08:49.883Z,23.40
2022-10-17T11:11:45.974Z,27.00
2022-10-17T11:14:19.325Z,23.70
2022-10-17T11:17:33.280Z,21.52
2022-10-17T11:20:10.469Z,20.95
2022-10-17T11:23:12.055Z,21.42
2022-10-17T11:25:41.167Z,19.08
2022-10-17T11:28:21.947Z,17.77
2022-10-17T11:30:55.703Z,16.98
2022-10-17T11:33:58.187Z,17.75
2022-10-17T11:36:47.932Z,17.42
2022-10-17T11:39:33.484Z,16.70
2022-10-17T11:42:16.992Z,15.57
2022-10-17T11:44:45.581Z,16.50
2022-10-17T11:47:31.107Z,13.00
2022-10-17T11:53:29.047Z,14.32
2022-10-17T11:56:06.127Z,13.35
2022-10-17T11:58:49.539Z,12.48
2022-10-17T12:01:46.069Z,14.05
2022-10-17T12:04:33.375Z,16.98
2022-10-17T12:07:23.169Z,15.10
2022-10-17T12:10:09.069Z,12.25
2022-10-17T12:12:38.417Z,13.75
2022-10-17T12:15:20.989Z,14.95
2022-10-17T12:18:04.926Z,12.82
2022-10-17T12:20:45.939Z,15.68
2022-10-17T12:23:13.159Z,12.55
2022-10-17T12:26:04.907Z,16.02
2022-10-17T12:28:49.459Z,11.55
2022-10-17T12:31:22.905Z,13.38
2022-10-17T12:34:14.909Z,15.70
2022-10-17T12:36:49.029Z,13.73
2022-10-17T12:39:17.821Z,14.82
2022-10-17T12:41:46.669Z,16.00
2022-10-17T12:44:19.952Z,12.82
2022-10-17T12:46:56.270Z,11.05
2022-10-17T12:49:53.149Z,10.93
2022-10-17T12:53:17.055Z,13.52
2022-10-17T12:55:54.924Z,11.32
2022-10-17T12:58:29.019Z,11.60
2022-10-17T13:01:22.742Z,9.40
2022-10-17T13:03:56.234Z,9.68
2022-10-17T13:06:30.654Z,10.95
2022-10-17T13:09:22.902Z,8.63
2022-10-17T13:11:50.795Z,12.57
2022-10-17T13:14:28.110Z,11.77
2022-10-17T13:17:05.752Z,11.77
2022-10-17T13:19:53.004Z,9.63
2022-10-17T13:22:24.705Z,13.18
2022-10-17T13:25:01.509Z,10.40
2022-10-17T13:27:38.087Z,13.40
2022-10-17T13:30:30.916Z,10.40
2022-10-17T13:33:08.200Z,9.48
2022-10-17T13:35:59.846Z,13.45
2022-10-17T13:38:30.625Z,11.73
2022-10-17T13:41:30.558Z,10.27
2022-10-17T13:44:06.284Z,12.88
2022-10-17T13:46:42.986Z,13.07
2022-10-17T13:49:28.715Z,10.60
2022-10-17T13:52:05.290Z,10.25
2022-10-17T13:54:50.943Z,9.82
2022-10-17T13:57:32.400Z,10.18
2022-10-17T14:00:22.291Z,8.85
2022-10-17T14:02:49.838Z,8.52
2022-10-17T14:05:27.974Z,8.40
2022-10-17T14:08:12.353Z,12.77
2022-10-17T14:10:50.904Z,9.10
2022-10-17T14:13:45.054Z,10.77
2022-10-17T14:16:12.385Z,9.60
2022-10-17T14:18:46.866Z,9.88
2022-10-17T14:21:44.370Z,11.38
2022-10-17T14:24:39.066Z,10.20
2022-10-17T14:30:01.134Z,9.10
2022-10-17T14:32:50.855Z,7.90
2022-10-17T14:35:41.186Z,9.70
2022-10-17T14:38:22.275Z,8.98
2022-10-17T14:41:30.615Z,10.98
2022-10-17T14:44:06.169Z,9.10
2022-10-17T14:46:43.630Z,9.60
2022-10-17T14:49:24.635Z,6.07
2022-10-17T14:52:23.324Z,9.38
2022-10-17T14:54:58.050Z,8.68
2022-10-17T14:57:54.981Z,10.10
2022-10-17T15:00:23.554Z,5.85
2022-10-17T15:03:00.111Z,8.40
2022-10-17T15:05:28.777Z,7.20
2022-10-17T15:08:02.284Z,6.40
2022-10-17T15:10:33.225Z,5.32
2022-10-17T15:16:04.799Z,6.78
2022-10-17T15:18:33.285Z,4.82
2022-10-17T15:21:25.702Z,5.47
2022-10-17T15:23:54.184Z,4.38
2022-10-17T15:26:33.240Z,3.97
2022-10-17T15:29:08.114Z,5.22
2022-10-17T15:34:16.099Z,3.75
2022-10-17T15:36:52.767Z,5.47
2022-10-17T15:39:26.985Z,4.78
2022-10-17T15:41:54.419Z,3.33
2022-10-17T15:44:27.990Z,3.60
2022-10-17T15:46:57.358Z,5.13
2022-10-17T15:49:24.575Z,5.57
2022-10-17T15:51:59.177Z,5.00
2022-10-17T15:54:27.744Z,4.65
2022-10-17T15:57:02.146Z,4.20
2022-10-17T15:59:41.044Z,4.78
2022-10-17T16:02:15.055Z,5.60
2022-10-17T16:04:48.919Z,6.65
2022-10-17T16:07:16.659Z,5.65
2022-10-17T16:09:51.020Z,5.35
2022-10-17T16:12:35.095Z,6.68
2022-10-17T16:15:09.104Z,6.00
2022-10-17T16:17:43.321Z,6.93
2022-10-17T16:20:12.999Z,5.73
2022-10-17T16:22:42.436Z,6.40
2022-10-17T16:25:30.874Z,6.93
2022-10-17T16:28:00.763Z,8.35
2022-10-17T16:30:39.249Z,7.25
2022-10-17T16:33:13.260Z,9.30
2022-10-17T16:35:56.546Z,8.88
2022-10-17T16:38:30.094Z,8.55
2022-10-17T16:40:57.795Z,9.77
2022-10-17T16:43:31.258Z,10.00
2022-10-17T16:46:05.006Z,8.80
2022-10-17T16:48:32.298Z,10.07
2022-10-17T16:51:06.034Z,8.68
2022-10-17T16:53:33.289Z,9.75
2022-10-17T16:56:10.328Z,8.95
2022-10-17T16:58:39.870Z,10.60
2022-10-17T17:01:18.134Z,11.65
2022-10-17T17:03:53.997Z,10.88
2022-10-17T17:06:33.113Z,11.07
2022-10-17T17:09:00.324Z,10.82
2022-10-17T17:11:36.138Z,12.27
2022-10-17T17:14:04.535Z,9.50
2022-10-17T17:16:41.281Z,10.23
2022-10-17T17:19:18.030Z,11.23
2022-10-17T17:21:57.064Z,10.85
2022-10-17T17:24:24.665Z,12.48
2022-10-17T17:27:00.312Z,14.70
2022-10-17T17:29:27.724Z,10.48
2022-10-17T17:32:02.017Z,13.63
2022-10-17T17:34:36.195Z,13.48
2022-10-17T17:37:22.800Z,15.30
2022-10-17T17:39:49.914Z,12.25
2022-10-17T17:42:24.232Z,14.25
2022-10-17T17:44:52.461Z,18.13
2022-10-17T17:47:27.993Z,17.10
2022-10-17T17:49:55.400Z,16.35
2022-10-17T17:52:29.312Z,12.93
2022-10-17T17:55:02.997Z,17.93
2022-10-17T17:57:30.449Z,14.45
2022-10-17T18:00:04.215Z,15.73
2022-10-17T18:02:31.880Z,14.52
2022-10-17T18:04:59.818Z,13.18
2022-10-17T18:07:34.190Z,14.73
2022-10-17T18:10:01.464Z,13.95
2022-10-17T18:12:36.104Z,15.98
2022-10-17T18:15:04.479Z,16.90
2022-10-17T18:17:38.012Z,10.98
2022-10-17T18:20:06.572Z,16.13
2022-10-17T18:22:40.154Z,12.65
2022-10-17T18:25:07.854Z,16.73
2022-10-17T18:27:42.018Z,19.58
2022-10-17T18:30:09.752Z,17.30
2022-10-17T18:32:45.342Z,14.75
2022-10-17T18:35:19.259Z,12.98
2022-10-17T18:37:53.115Z,14.23
2022-10-17T18:40:20.308Z,15.02
2022-10-17T18:42:54.024Z,15.60
2022-10-17T18:45:22.409Z,14.40
2022-10-17T18:47:59.292Z,15.50
2022-10-17T18:50:26.417Z,15.73
2022-10-17T18:53:00.010Z,16.45
2022-10-17T18:55:27.430Z,14.55
2022-10-17T18:58:01.139Z,16.40
2022-10-17T19:00:28.753Z,15.50
2022-10-17T19:03:02.080Z,15.07
2022-10-17T19:05:36.144Z,13.57
2022-10-17T19:08:03.243Z,13.38
2022-10-17T19:10:39.101Z,18.77
2022-10-17T19:13:06.359Z,12.32
2022-10-17T19:15:40.040Z,15.38
2022-10-17T19:18:07.258Z,14.02
2022-10-17T19:20:44.183Z,14.52
2022-10-17T19:23:18.264Z,13.80
2022-10-17T19:25:52.028Z,15.13
2022-10-17T19:28:26.531Z,13.13
2022-10-17T19:30:59.995Z,16.35
2022-10-17T19:33:34.858Z,15.13
2022-10-17T19:36:11.894Z,14.57
2022-10-17T19:38:46.061Z,14.10
2022-10-17T19:41:15.281Z,12.50
2022-10-17T19:43:43.974Z,14.55
2022-10-17T19:46:26.998Z,14.13
2022-10-17T19:48:54.329Z,17.25
2022-10-17T19:51:33.286Z,12.95
2022-10-17T19:54:08.311Z,13.55
2022-10-17T19:59:14.561Z,14.00
2022-10-17T20:01:49.050Z,17.23
2022-10-17T20:04:23.101Z,15.27
2022-10-17T20:06:50.591Z,13.00
2022-10-17T20:09:24.113Z,16.08
2022-10-17T20:11:58.077Z,11.73
2022-10-17T20:14:32.165Z,11.38
2022-10-17T20:16:59.869Z,14.30
2022-10-17T20:19:34.251Z,14.20
2022-10-17T20:22:01.540Z,13.88
2022-10-17T20:24:35.284Z,12.75
2022-10-17T20:27:02.513Z,13.45
2022-10-17T20:29:36.113Z,12.88
2022-10-17T20:32:03.604Z,13.93
2022-10-17T20:34:44.554Z,12.50
2022-10-17T20:37:17.763Z,12.40
2022-10-17T20:40:00.004Z,13.68
2022-10-17T20:42:38.198Z,16.60
2022-10-17T20:45:13.174Z,13.07
2022-10-17T20:47:51.590Z,13.43
2022-10-17T20:50:27.143Z,11.75
2022-10-17T20:53:24.476Z,13.40
2022-10-17T20:55:55.109Z,12.38
2022-10-17T20:58:22.355Z,15.35
2022-10-17T21:00:49.510Z,14.57
2022-10-17T21:03:23.032Z,12.00
2022-10-17T21:05:50.273Z,12.15
2022-10-17T21:08:24.438Z,15.20
2022-10-17T21:10:51.794Z,12.57
2022-10-17T21:13:25.062Z,12.80
2022-10-17T21:15:52.183Z,13.65
2022-10-17T21:18:26.066Z,16.02
2022-10-17T21:20:53.254Z,13.63
2022-10-17T21:23:27.244Z,12.80
2022-10-17T21:25:54.535Z,12.55
2022-10-17T21:28:28.225Z,12.20
2022-10-17T21:30:55.578Z,13.00
2022-10-17T21:33:29.185Z,9.77
2022-10-17T21:36:10.322Z,15.27
2022-10-17T21:38:41.642Z,12.32
2022-10-17T21:41:17.018Z,13.20
2022-10-17T21:43:44.703Z,11.52
2022-10-17T21:46:24.956Z,14.75
2022-10-17T21:48:54.625Z,11.00
2022-10-17T21:51:31.084Z,13.20
2022-10-17T21:53:58.718Z,10.98
2022-10-17T21:56:39.092Z,12.10
2022-10-17T21:59:06.920Z,11.93
2022-10-17T22:01:46.265Z,12.95
2022-10-17T22:04:15.956Z,10.70
2022-10-17T22:06:52.156Z,12.85
2022-10-17T22:09:25.556Z,10.35
2022-10-17T22:12:06.660Z,14.45
2022-10-17T22:14:40.136Z,11.60
2022-10-17T22:17:14.131Z,12.43
2022-10-17T22:19:41.529Z,13.88
2022-10-17T22:22:16.239Z,16.60
2022-10-17T22:24:50.216Z,16.15
2022-10-17T22:27:17.532Z,11.65
2022-10-17T22:29:50.999Z,15.23
2022-10-17T22:32:21.542Z,12.85
2022-10-17T22:35:03.152Z,14.30
2022-10-17T22:37:37.364Z,14.85
2022-10-17T22:40:13.089Z,14.90
2022-10-17T22:42:47.167Z,12.60
2022-10-17T22:45:14.462Z,12.80
2022-10-17T22:47:49.242Z,16.52
2022-10-17T22:50:24.257Z,14.85
2022-10-17T22:55:32.101Z,14.60
2022-10-17T22:57:59.399Z,15.68
2022-10-17T23:00:33.084Z,15.80
2022-10-17T23:03:07.225Z,16.00
2022-10-17T23:05:34.910Z,15.70
2022-10-17T23:08:02.160Z,15.35
2022-10-17T23:10:37.135Z,15.02
2022-10-17T23:13:05.212Z,16.98
2022-10-17T23:15:40.071Z,16.30
2022-10-17T23:18:07.992Z,11.63
2022-10-17T23:20:42.160Z,14.80
2022-10-17T23:23:16.200Z,14.83
2022-10-17T23:25:43.883Z,15.00
2022-10-17T23:28:18.190Z,14.70
2022-10-17T23:30:45.823Z,14.23
2022-10-17T23:33:21.304Z,15.63
2022-10-17T23:36:01.180Z,17.15
2022-10-17T23:38:35.158Z,14.25
2022-10-17T23:41:04.134Z,17.52
2022-10-17T23:43:39.149Z,15.52
2022-10-17T23:46:07.684Z,12.50
2022-10-17T23:48:42.163Z,11.15
2022-10-17T23:51:10.665Z,13.40
2022-10-17T23:53:45.189Z,12.75
2022-10-17T23:56:12.357Z,12.85
2022-10-17T23:58:47.160Z,13.90
